Rochester, Indiana
Current Conditions -  °F | °C
As of 8:15 PM on Monday 20 Oct 2014 (Local Time) from KRCR Reporting Station
Broken Clouds Broken Clouds  
Wind Chill: 55°   Ceiling: 5500
Heat Index: 55°   Visibility: 10mi
Dew Point: 50°   Wind: 9mph
Humidity: 82%   Direction: 330°NNW
Pressure: 29.92"   Gusts: NA
Location:  41.07°N, 86.21°W
Report Text: KRCR 210015Z AUTO 33008KT 10SM SCT047 BKN055 BKN075 13/10 A2992 RMK AO2
Loading
Personal Weather Stations






























Interactive Weather Map New forecast layout! Learn more

10-Day Weather Forecast

Advertisements
Track Severe Weather on mobile